sensor_id;sensor_type;location;lat;lon;timestamp;temperature;humidity
23385;DHT22;11865;45.394;10.978;2022-07-06T00:01:29;26.00;84.90
23385;DHT22;11865;45.394;10.978;2022-07-06T00:03:57;25.90;85.90
23385;DHT22;11865;45.394;10.978;2022-07-06T00:06:24;25.80;86.50
23385;DHT22;11865;45.394;10.978;2022-07-06T00:08:52;25.60;87.70
23385;DHT22;11865;45.394;10.978;2022-07-06T00:11:19;25.60;89.30
23385;DHT22;11865;45.394;10.978;2022-07-06T00:13:46;25.50;90.60
23385;DHT22;11865;45.394;10.978;2022-07-06T00:16:14;25.40;90.60
23385;DHT22;11865;45.394;10.978;2022-07-06T00:18:41;25.30;91.30
23385;DHT22;11865;45.394;10.978;2022-07-06T00:21:09;25.30;91.40
23385;DHT22;11865;45.394;10.978;2022-07-06T00:23:36;25.10;85.20
23385;DHT22;11865;45.394;10.978;2022-07-06T00:26:03;25.00;86.00
23385;DHT22;11865;45.394;10.978;2022-07-06T00:28:31;24.90;94.10
23385;DHT22;11865;45.394;10.978;2022-07-06T00:30:58;24.80;93.90
23385;DHT22;11865;45.394;10.978;2022-07-06T00:33:26;24.70;95.30
23385;DHT22;11865;45.394;10.978;2022-07-06T00:35:53;24.70;95.00
23385;DHT22;11865;45.394;10.978;2022-07-06T00:38:20;24.70;96.20
23385;DHT22;11865;45.394;10.978;2022-07-06T00:40:48;24.60;97.40
23385;DHT22;11865;45.394;10.978;2022-07-06T00:43:16;24.60;98.80
23385;DHT22;11865;45.394;10.978;2022-07-06T00:45:43;24.60;99.30
23385;DHT22;11865;45.394;10.978;2022-07-06T00:48:11;24.50;99.50
23385;DHT22;11865;45.394;10.978;2022-07-06T00:50:39;24.40;99.80
23385;DHT22;11865;45.394;10.978;2022-07-06T00:53:06;24.50;99.90
23385;DHT22;11865;45.394;10.978;2022-07-06T00:55:38;24.50;99.90
23385;DHT22;11865;45.394;10.978;2022-07-06T00:58:09;24.60;99.60
23385;DHT22;11865;45.394;10.978;2022-07-06T01:00:36;24.70;99.10
23385;DHT22;11865;45.394;10.978;2022-07-06T01:03:04;24.70;99.20
23385;DHT22;11865;45.394;10.978;2022-07-06T01:05:31;24.80;98.90
23385;DHT22;11865;45.394;10.978;2022-07-06T01:07:58;24.70;99.10
23385;DHT22;11865;45.394;10.978;2022-07-06T01:10:27;24.80;99.30
23385;DHT22;11865;45.394;10.978;2022-07-06T01:12:55;24.80;99.50
23385;DHT22;11865;45.394;10.978;2022-07-06T01:15:24;24.80;98.70
23385;DHT22;11865;45.394;10.978;2022-07-06T01:17:52;24.80;98.30
23385;DHT22;11865;45.394;10.978;2022-07-06T01:20:25;24.90;98.10
23385;DHT22;11865;45.394;10.978;2022-07-06T01:22:53;24.90;98.10
23385;DHT22;11865;45.394;10.978;2022-07-06T01:25:21;25.00;97.80
23385;DHT22;11865;45.394;10.978;2022-07-06T01:27:48;25.10;97.50
23385;DHT22;11865;45.394;10.978;2022-07-06T01:30:16;25.00;97.60
23385;DHT22;11865;45.394;10.978;2022-07-06T01:32:44;25.00;97.40
23385;DHT22;11865;45.394;10.978;2022-07-06T01:35:12;25.00;97.30
23385;DHT22;11865;45.394;10.978;2022-07-06T01:37:40;25.00;97.40
23385;DHT22;11865;45.394;10.978;2022-07-06T01:40:09;25.00;97.20
23385;DHT22;11865;45.394;10.978;2022-07-06T01:42:36;24.90;97.30
23385;DHT22;11865;45.394;10.978;2022-07-06T01:45:04;24.90;97.90
23385;DHT22;11865;45.394;10.978;2022-07-06T01:47:32;24.80;98.40
23385;DHT22;11865;45.394;10.978;2022-07-06T01:50:01;24.60;98.50
23385;DHT22;11865;45.394;10.978;2022-07-06T01:52:31;24.60;98.60
23385;DHT22;11865;45.394;10.978;2022-07-06T01:55:00;24.50;98.70
23385;DHT22;11865;45.394;10.978;2022-07-06T01:57:29;24.50;99.10
23385;DHT22;11865;45.394;10.978;2022-07-06T01:59:57;24.20;99.30
23385;DHT22;11865;45.394;10.978;2022-07-06T02:02:24;24.20;99.80
23385;DHT22;11865;45.394;10.978;2022-07-06T02:04:52;24.10;99.90
23385;DHT22;11865;45.394;10.978;2022-07-06T02:07:19;24.00;99.90
23385;DHT22;11865;45.394;10.978;2022-07-06T02:09:46;24.00;99.90
23385;DHT22;11865;45.394;10.978;2022-07-06T02:12:13;24.10;99.90
23385;DHT22;11865;45.394;10.978;2022-07-06T02:14:41;24.00;99.90
23385;DHT22;11865;45.394;10.978;2022-07-06T02:17:08;24.00;99.80
23385;DHT22;11865;45.394;10.978;2022-07-06T02:19:35;23.90;99.70
23385;DHT22;11865;45.394;10.978;2022-07-06T02:22:03;23.90;99.90
23385;DHT22;11865;45.394;10.978;2022-07-06T02:24:32;23.80;99.90
23385;DHT22;11865;45.394;10.978;2022-07-06T02:26:59;23.90;99.70
23385;DHT22;11865;45.394;10.978;2022-07-06T02:29:26;23.90;99.70
23385;DHT22;11865;45.394;10.978;2022-07-06T02:31:54;23.80;99.60
23385;DHT22;11865;45.394;10.978;2022-07-06T02:34:24;24.00;99.10
23385;DHT22;11865;45.394;10.978;2022-07-06T02:36:53;24.00;98.80
23385;DHT22;11865;45.394;10.978;2022-07-06T02:39:20;24.00;98.70
23385;DHT22;11865;45.394;10.978;2022-07-06T02:41:47;24.10;98.50
23385;DHT22;11865;45.394;10.978;2022-07-06T02:44:15;24.20;98.30
23385;DHT22;11865;45.394;10.978;2022-07-06T02:46:42;24.20;98.20
23385;DHT22;11865;45.394;10.978;2022-07-06T02:49:10;24.10;98.30
23385;DHT22;11865;45.394;10.978;2022-07-06T02:51:37;24.20;98.20
23385;DHT22;11865;45.394;10.978;2022-07-06T02:54:05;24.20;98.20
23385;DHT22;11865;45.394;10.978;2022-07-06T02:56:32;24.20;98.20
23385;DHT22;11865;45.394;10.978;2022-07-06T02:59:00;24.20;98.10
23385;DHT22;11865;45.394;10.978;2022-07-06T03:01:28;24.20;98.00
23385;DHT22;11865;45.394;10.978;2022-07-06T03:03:55;24.30;98.00
23385;DHT22;11865;45.394;10.978;2022-07-06T03:06:24;24.20;97.90
23385;DHT22;11865;45.394;10.978;2022-07-06T03:08:51;24.20;97.80
23385;DHT22;11865;45.394;10.978;2022-07-06T03:11:19;24.30;97.80
23385;DHT22;11865;45.394;10.978;2022-07-06T03:13:47;24.20;97.90
23385;DHT22;11865;45.394;10.978;2022-07-06T03:16:14;24.20;97.70
23385;DHT22;11865;45.394;10.978;2022-07-06T03:18:42;24.20;97.80
23385;DHT22;11865;45.394;10.978;2022-07-06T03:21:09;24.10;98.20
23385;DHT22;11865;45.394;10.978;2022-07-06T03:23:37;24.10;97.90
23385;DHT22;11865;45.394;10.978;2022-07-06T03:26:04;24.20;98.10
23385;DHT22;11865;45.394;10.978;2022-07-06T03:28:33;24.20;98.10
23385;DHT22;11865;45.394;10.978;2022-07-06T03:31:00;24.10;98.30
23385;DHT22;11865;45.394;10.978;2022-07-06T03:33:27;24.10;98.30
23385;DHT22;11865;45.394;10.978;2022-07-06T03:35:55;24.20;98.00
23385;DHT22;11865;45.394;10.978;2022-07-06T03:38:23;24.20;98.10
23385;DHT22;11865;45.394;10.978;2022-07-06T03:40:51;24.20;98.10
23385;DHT22;11865;45.394;10.978;2022-07-06T03:43:18;24.10;98.10
23385;DHT22;11865;45.394;10.978;2022-07-06T03:45:46;24.10;98.20
23385;DHT22;11865;45.394;10.978;2022-07-06T03:48:14;24.20;98.30
23385;DHT22;11865;45.394;10.978;2022-07-06T03:50:42;24.10;98.30
23385;DHT22;11865;45.394;10.978;2022-07-06T03:53:10;24.10;98.40
23385;DHT22;11865;45.394;10.978;2022-07-06T03:55:37;24.10;98.10
23385;DHT22;11865;45.394;10.978;2022-07-06T03:58:08;24.10;98.20
23385;DHT22;11865;45.394;10.978;2022-07-06T04:00:38;24.10;98.10
23385;DHT22;11865;45.394;10.978;2022-07-06T04:03:10;24.10;98.00
23385;DHT22;11865;45.394;10.978;2022-07-06T04:05:46;24.20;98.00
23385;DHT22;11865;45.394;10.978;2022-07-06T04:08:13;24.20;97.70
23385;DHT22;11865;45.394;10.978;2022-07-06T04:10:46;24.20;97.60
23385;DHT22;11865;45.394;10.978;2022-07-06T04:13:14;24.40;97.40
23385;DHT22;11865;45.394;10.978;2022-07-06T04:15:41;24.40;97.20
23385;DHT22;11865;45.394;10.978;2022-07-06T04:18:08;24.40;97.40
23385;DHT22;11865;45.394;10.978;2022-07-06T04:20:42;24.20;97.90
23385;DHT22;11865;45.394;10.978;2022-07-06T04:23:09;24.20;98.60
23385;DHT22;11865;45.394;10.978;2022-07-06T04:25:37;24.30;98.20
23385;DHT22;11865;45.394;10.978;2022-07-06T04:28:04;24.40;97.90
23385;DHT22;11865;45.394;10.978;2022-07-06T04:30:33;24.30;98.30
23385;DHT22;11865;45.394;10.978;2022-07-06T04:33:02;24.50;97.70
23385;DHT22;11865;45.394;10.978;2022-07-06T04:35:32;24.70;97.20
23385;DHT22;11865;45.394;10.978;2022-07-06T04:37:59;24.90;97.10
23385;DHT22;11865;45.394;10.978;2022-07-06T04:40:27;25.00;96.60
23385;DHT22;11865;45.394;10.978;2022-07-06T04:42:58;25.40;96.10
23385;DHT22;11865;45.394;10.978;2022-07-06T04:45:28;25.50;95.80
23385;DHT22;11865;45.394;10.978;2022-07-06T04:47:55;25.80;95.20
23385;DHT22;11865;45.394;10.978;2022-07-06T04:50:24;26.30;94.40
23385;DHT22;11865;45.394;10.978;2022-07-06T04:52:53;26.30;94.10
23385;DHT22;11865;45.394;10.978;2022-07-06T04:55:20;26.70;93.80
23385;DHT22;11865;45.394;10.978;2022-07-06T04:57:48;27.70;93.50
23385;DHT22;11865;45.394;10.978;2022-07-06T05:00:17;28.30;93.80
23385;DHT22;11865;45.394;10.978;2022-07-06T05:02:47;29.10;93.70
23385;DHT22;11865;45.394;10.978;2022-07-06T05:05:15;28.50;94.90
23385;DHT22;11865;45.394;10.978;2022-07-06T05:07:43;29.50;94.40
23385;DHT22;11865;45.394;10.978;2022-07-06T05:10:10;29.60;94.60
23385;DHT22;11865;45.394;10.978;2022-07-06T05:12:41;28.50;97.00
23385;DHT22;11865;45.394;10.978;2022-07-06T05:15:09;27.80;98.80
23385;DHT22;11865;45.394;10.978;2022-07-06T05:17:36;27.30;99.80
23385;DHT22;11865;45.394;10.978;2022-07-06T05:20:05;27.00;99.90
23385;DHT22;11865;45.394;10.978;2022-07-06T05:22:36;26.30;99.90
23385;DHT22;11865;45.394;10.978;2022-07-06T05:25:11;26.40;99.90
23385;DHT22;11865;45.394;10.978;2022-07-06T05:27:39;26.20;99.90
23385;DHT22;11865;45.394;10.978;2022-07-06T05:30:07;26.20;99.90
23385;DHT22;11865;45.394;10.978;2022-07-06T05:32:35;26.20;99.90
23385;DHT22;11865;45.394;10.978;2022-07-06T05:35:03;26.00;99.90
23385;DHT22;11865;45.394;10.978;2022-07-06T05:37:50;26.20;99.90
23385;DHT22;11865;45.394;10.978;2022-07-06T05:40:18;26.00;99.90
23385;DHT22;11865;45.394;10.978;2022-07-06T05:42:45;25.90;99.90
23385;DHT22;11865;45.394;10.978;2022-07-06T05:45:13;25.50;99.90
23385;DHT22;11865;45.394;10.978;2022-07-06T05:47:42;25.20;99.90
23385;DHT22;11865;45.394;10.978;2022-07-06T05:50:30;25.10;99.90
23385;DHT22;11865;45.394;10.978;2022-07-06T05:52:58;24.90;99.90
23385;DHT22;11865;45.394;10.978;2022-07-06T05:55:36;25.00;99.90
23385;DHT22;11865;45.394;10.978;2022-07-06T05:58:03;25.10;99.90
23385;DHT22;11865;45.394;10.978;2022-07-06T06:00:32;24.90;99.90
23385;DHT22;11865;45.394;10.978;2022-07-06T06:03:05;24.80;99.90
23385;DHT22;11865;45.394;10.978;2022-07-06T06:05:33;23.20;99.90
23385;DHT22;11865;45.394;10.978;2022-07-06T06:08:04;22.30;99.90
23385;DHT22;11865;45.394;10.978;2022-07-06T06:10:31;21.80;99.90
23385;DHT22;11865;45.394;10.978;2022-07-06T06:13:03;21.90;99.90
23385;DHT22;11865;45.394;10.978;2022-07-06T06:15:31;21.60;99.90
23385;DHT22;11865;45.394;10.978;2022-07-06T06:17:59;21.20;99.90
23385;DHT22;11865;45.394;10.978;2022-07-06T06:20:26;20.90;99.90
23385;DHT22;11865;45.394;10.978;2022-07-06T06:22:54;20.70;99.90
23385;DHT22;11865;45.394;10.978;2022-07-06T06:25:29;20.90;99.90
23385;DHT22;11865;45.394;10.978;2022-07-06T06:27:56;21.20;99.90
23385;DHT22;11865;45.394;10.978;2022-07-06T06:30:24;21.60;99.90
23385;DHT22;11865;45.394;10.978;2022-07-06T06:32:51;21.40;99.90
23385;DHT22;11865;45.394;10.978;2022-07-06T06:35:18;21.50;99.90
23385;DHT22;11865;45.394;10.978;2022-07-06T06:37:46;21.60;99.90
23385;DHT22;11865;45.394;10.978;2022-07-06T06:40:13;21.70;99.90
23385;DHT22;11865;45.394;10.978;2022-07-06T06:42:40;21.90;99.90
23385;DHT22;11865;45.394;10.978;2022-07-06T06:45:11;22.00;99.90
23385;DHT22;11865;45.394;10.978;2022-07-06T06:47:39;22.20;99.90
23385;DHT22;11865;45.394;10.978;2022-07-06T06:50:06;22.50;99.90
23385;DHT22;11865;45.394;10.978;2022-07-06T06:52:34;22.70;99.90
23385;DHT22;11865;45.394;10.978;2022-07-06T06:55:06;22.90;99.90
23385;DHT22;11865;45.394;10.978;2022-07-06T06:57:34;23.90;99.90
23385;DHT22;11865;45.394;10.978;2022-07-06T07:00:03;24.70;99.90
23385;DHT22;11865;45.394;10.978;2022-07-06T07:02:30;26.00;99.90
23385;DHT22;11865;45.394;10.978;2022-07-06T07:04:58;26.80;99.90
23385;DHT22;11865;45.394;10.978;2022-07-06T07:07:25;26.50;99.90
23385;DHT22;11865;45.394;10.978;2022-07-06T07:09:52;27.00;99.90
23385;DHT22;11865;45.394;10.978;2022-07-06T07:12:20;27.50;99.90
23385;DHT22;11865;45.394;10.978;2022-07-06T07:14:47;27.60;99.90
23385;DHT22;11865;45.394;10.978;2022-07-06T07:17:15;28.30;99.90
23385;DHT22;11865;45.394;10.978;2022-07-06T07:19:42;28.80;99.90
23385;DHT22;11865;45.394;10.978;2022-07-06T07:22:10;29.20;99.90
23385;DHT22;11865;45.394;10.978;2022-07-06T07:24:37;29.10;99.90
23385;DHT22;11865;45.394;10.978;2022-07-06T07:27:05;28.30;99.90
23385;DHT22;11865;45.394;10.978;2022-07-06T07:29:32;28.00;99.90
23385;DHT22;11865;45.394;10.978;2022-07-06T07:32:00;28.50;99.90
23385;DHT22;11865;45.394;10.978;2022-07-06T07:34:27;28.50;99.90
23385;DHT22;11865;45.394;10.978;2022-07-06T07:36:54;29.10;99.90
23385;DHT22;11865;45.394;10.978;2022-07-06T07:39:22;30.00;99.90
23385;DHT22;11865;45.394;10.978;2022-07-06T07:41:49;29.60;98.50
23385;DHT22;11865;45.394;10.978;2022-07-06T07:44:17;29.30;98.30
23385;DHT22;11865;45.394;10.978;2022-07-06T07:46:44;29.60;98.50
23385;DHT22;11865;45.394;10.978;2022-07-06T07:49:12;30.30;99.10
23385;DHT22;11865;45.394;10.978;2022-07-06T07:51:49;29.90;95.60
23385;DHT22;11865;45.394;10.978;2022-07-06T07:54:16;29.90;96.20
23385;DHT22;11865;45.394;10.978;2022-07-06T07:56:44;29.70;96.50
23385;DHT22;11865;45.394;10.978;2022-07-06T07:59:11;30.00;96.70
23385;DHT22;11865;45.394;10.978;2022-07-06T08:01:40;30.50;96.60
23385;DHT22;11865;45.394;10.978;2022-07-06T08:04:07;30.40;95.40
23385;DHT22;11865;45.394;10.978;2022-07-06T08:06:35;30.20;95.80
23385;DHT22;11865;45.394;10.978;2022-07-06T08:09:02;31.20;97.70
23385;DHT22;11865;45.394;10.978;2022-07-06T08:11:31;31.20;96.60
23385;DHT22;11865;45.394;10.978;2022-07-06T08:13:59;31.30;94.80
23385;DHT22;11865;45.394;10.978;2022-07-06T08:16:26;30.30;94.50
23385;DHT22;11865;45.394;10.978;2022-07-06T08:18:54;29.80;95.30
23385;DHT22;11865;45.394;10.978;2022-07-06T08:21:36;30.60;96.70
23385;DHT22;11865;45.394;10.978;2022-07-06T08:24:04;31.00;97.90
23385;DHT22;11865;45.394;10.978;2022-07-06T08:26:31;30.90;94.10
23385;DHT22;11865;45.394;10.978;2022-07-06T08:28:58;30.30;94.50
23385;DHT22;11865;45.394;10.978;2022-07-06T08:31:26;30.20;95.00
23385;DHT22;11865;45.394;10.978;2022-07-06T08:34:17;30.70;95.90
23385;DHT22;11865;45.394;10.978;2022-07-06T08:36:44;29.90;94.40
23385;DHT22;11865;45.394;10.978;2022-07-06T08:39:11;29.80;95.10
23385;DHT22;11865;45.394;10.978;2022-07-06T08:41:40;29.50;94.40
23385;DHT22;11865;45.394;10.978;2022-07-06T08:44:08;30.00;95.20
23385;DHT22;11865;45.394;10.978;2022-07-06T08:46:39;29.60;94.70
23385;DHT22;11865;45.394;10.978;2022-07-06T08:49:07;30.00;94.70
23385;DHT22;11865;45.394;10.978;2022-07-06T08:51:35;30.10;94.90
23385;DHT22;11865;45.394;10.978;2022-07-06T08:54:02;30.50;96.90
23385;DHT22;11865;45.394;10.978;2022-07-06T08:56:30;30.60;95.10
23385;DHT22;11865;45.394;10.978;2022-07-06T08:58:57;30.70;94.60
23385;DHT22;11865;45.394;10.978;2022-07-06T09:01:25;30.60;94.70
23385;DHT22;11865;45.394;10.978;2022-07-06T09:03:53;30.50;93.60
23385;DHT22;11865;45.394;10.978;2022-07-06T09:06:24;30.70;94.50
23385;DHT22;11865;45.394;10.978;2022-07-06T09:08:53;30.70;95.20
23385;DHT22;11865;45.394;10.978;2022-07-06T09:11:24;30.80;94.60
23385;DHT22;11865;45.394;10.978;2022-07-06T09:13:52;30.80;95.40
23385;DHT22;11865;45.394;10.978;2022-07-06T09:16:24;30.80;93.90
23385;DHT22;11865;45.394;10.978;2022-07-06T09:19:04;30.90;93.40
23385;DHT22;11865;45.394;10.978;2022-07-06T09:21:32;30.80;94.20
23385;DHT22;11865;45.394;10.978;2022-07-06T09:24:00;30.80;94.70
23385;DHT22;11865;45.394;10.978;2022-07-06T09:26:29;30.90;94.90
23385;DHT22;11865;45.394;10.978;2022-07-06T09:28:57;30.80;93.20
23385;DHT22;11865;45.394;10.978;2022-07-06T09:31:25;30.70;92.80
23385;DHT22;11865;45.394;10.978;2022-07-06T09:33:53;30.60;93.20
23385;DHT22;11865;45.394;10.978;2022-07-06T09:39:28;30.70;92.80
23385;DHT22;11865;45.394;10.978;2022-07-06T09:41:54;30.60;93.30
23385;DHT22;11865;45.394;10.978;2022-07-06T09:44:23;30.60;91.80
23385;DHT22;11865;45.394;10.978;2022-07-06T09:46:51;30.10;92.80
23385;DHT22;11865;45.394;10.978;2022-07-06T09:49:19;30.20;91.90
23385;DHT22;11865;45.394;10.978;2022-07-06T09:51:47;30.30;92.90
23385;DHT22;11865;45.394;10.978;2022-07-06T09:54:15;30.60;92.50
23385;DHT22;11865;45.394;10.978;2022-07-06T09:56:44;30.50;91.60
23385;DHT22;11865;45.394;10.978;2022-07-06T09:59:14;30.80;93.00
23385;DHT22;11865;45.394;10.978;2022-07-06T10:01:42;31.10;91.70
23385;DHT22;11865;45.394;10.978;2022-07-06T10:04:10;30.70;91.10
23385;DHT22;11865;45.394;10.978;2022-07-06T10:06:40;31.10;92.10
23385;DHT22;11865;45.394;10.978;2022-07-06T10:09:08;31.20;90.20
23385;DHT22;11865;45.394;10.978;2022-07-06T10:11:40;31.30;91.20
23385;DHT22;11865;45.394;10.978;2022-07-06T10:14:09;31.30;91.40
23385;DHT22;11865;45.394;10.978;2022-07-06T10:16:38;31.10;90.60
23385;DHT22;11865;45.394;10.978;2022-07-06T10:19:08;31.10;90.40
23385;DHT22;11865;45.394;10.978;2022-07-06T10:21:37;31.00;89.30
23385;DHT22;11865;45.394;10.978;2022-07-06T10:24:08;31.20;90.00
23385;DHT22;11865;45.394;10.978;2022-07-06T10:26:35;31.30;88.80
23385;DHT22;11865;45.394;10.978;2022-07-06T10:29:03;31.10;90.50
23385;DHT22;11865;45.394;10.978;2022-07-06T10:31:31;31.40;90.90
23385;DHT22;11865;45.394;10.978;2022-07-06T10:34:00;31.70;90.50
23385;DHT22;11865;45.394;10.978;2022-07-06T10:36:28;31.30;91.30
23385;DHT22;11865;45.394;10.978;2022-07-06T10:38:55;31.20;90.80
23385;DHT22;11865;45.394;10.978;2022-07-06T10:41:32;30.90;89.40
23385;DHT22;11865;45.394;10.978;2022-07-06T10:44:20;31.20;91.10
23385;DHT22;11865;45.394;10.978;2022-07-06T10:46:51;31.50;91.50
23385;DHT22;11865;45.394;10.978;2022-07-06T10:49:20;31.60;91.80
23385;DHT22;11865;45.394;10.978;2022-07-06T10:52:08;31.50;90.50
23385;DHT22;11865;45.394;10.978;2022-07-06T10:54:39;31.50;90.50
23385;DHT22;11865;45.394;10.978;2022-07-06T10:57:10;31.20;90.50
23385;DHT22;11865;45.394;10.978;2022-07-06T10:59:59;31.50;90.60
23385;DHT22;11865;45.394;10.978;2022-07-06T11:02:29;31.40;91.20
23385;DHT22;11865;45.394;10.978;2022-07-06T11:05:09;31.80;91.20
23385;DHT22;11865;45.394;10.978;2022-07-06T11:07:48;32.20;91.50
23385;DHT22;11865;45.394;10.978;2022-07-06T11:10:15;32.40;91.50
23385;DHT22;11865;45.394;10.978;2022-07-06T11:12:45;32.30;91.00
23385;DHT22;11865;45.394;10.978;2022-07-06T11:15:13;32.50;90.90
23385;DHT22;11865;45.394;10.978;2022-07-06T11:18:12;32.70;89.70
23385;DHT22;11865;45.394;10.978;2022-07-06T11:20:40;32.70;88.20
23385;DHT22;11865;45.394;10.978;2022-07-06T11:23:07;32.80;90.70
23385;DHT22;11865;45.394;10.978;2022-07-06T11:25:34;32.50;92.00
23385;DHT22;11865;45.394;10.978;2022-07-06T11:28:01;32.70;92.10
23385;DHT22;11865;45.394;10.978;2022-07-06T11:30:29;32.50;93.00
23385;DHT22;11865;45.394;10.978;2022-07-06T11:33:01;32.10;92.20
23385;DHT22;11865;45.394;10.978;2022-07-06T11:35:28;31.90;93.70
23385;DHT22;11865;45.394;10.978;2022-07-06T11:37:55;32.00;91.80
23385;DHT22;11865;45.394;10.978;2022-07-06T11:40:23;31.90;92.20
23385;DHT22;11865;45.394;10.978;2022-07-06T11:42:53;31.80;91.20
23385;DHT22;11865;45.394;10.978;2022-07-06T11:45:27;31.80;92.90
23385;DHT22;11865;45.394;10.978;2022-07-06T11:51:00;32.00;93.60
23385;DHT22;11865;45.394;10.978;2022-07-06T11:53:28;32.10;93.80
23385;DHT22;11865;45.394;10.978;2022-07-06T11:55:56;32.10;93.30
23385;DHT22;11865;45.394;10.978;2022-07-06T11:58:29;32.20;92.60
23385;DHT22;11865;45.394;10.978;2022-07-06T12:03:30;32.00;92.70
23385;DHT22;11865;45.394;10.978;2022-07-06T12:06:03;32.10;92.20
23385;DHT22;11865;45.394;10.978;2022-07-06T12:08:31;32.10;92.90
23385;DHT22;11865;45.394;10.978;2022-07-06T12:11:00;32.00;92.40
23385;DHT22;11865;45.394;10.978;2022-07-06T12:13:28;32.10;93.30
23385;DHT22;11865;45.394;10.978;2022-07-06T12:16:09;32.00;92.10
23385;DHT22;11865;45.394;10.978;2022-07-06T12:18:38;31.90;92.40
23385;DHT22;11865;45.394;10.978;2022-07-06T12:21:10;31.70;92.80
23385;DHT22;11865;45.394;10.978;2022-07-06T12:23:38;31.90;91.80
23385;DHT22;11865;45.394;10.978;2022-07-06T12:26:05;31.80;92.60
23385;DHT22;11865;45.394;10.978;2022-07-06T12:28:32;31.50;91.10
23385;DHT22;11865;45.394;10.978;2022-07-06T12:31:00;31.20;91.40
23385;DHT22;11865;45.394;10.978;2022-07-06T12:33:27;31.60;92.30
23385;DHT22;11865;45.394;10.978;2022-07-06T12:35:55;31.90;92.90
23385;DHT22;11865;45.394;10.978;2022-07-06T12:38:26;32.20;91.80
23385;DHT22;11865;45.394;10.978;2022-07-06T12:40:54;32.20;93.00
23385;DHT22;11865;45.394;10.978;2022-07-06T12:46:22;32.30;91.10
23385;DHT22;11865;45.394;10.978;2022-07-06T12:48:51;31.80;90.00
23385;DHT22;11865;45.394;10.978;2022-07-06T12:51:19;31.60;89.20
23385;DHT22;11865;45.394;10.978;2022-07-06T12:53:46;31.80;90.60
23385;DHT22;11865;45.394;10.978;2022-07-06T12:56:14;31.70;90.30
23385;DHT22;11865;45.394;10.978;2022-07-06T12:58:57;31.80;91.10
23385;DHT22;11865;45.394;10.978;2022-07-06T13:01:25;31.80;91.10
23385;DHT22;11865;45.394;10.978;2022-07-06T13:03:56;31.70;91.40
23385;DHT22;11865;45.394;10.978;2022-07-06T13:06:30;32.00;90.80
23385;DHT22;11865;45.394;10.978;2022-07-06T13:08:58;31.90;88.50
23385;DHT22;11865;45.394;10.978;2022-07-06T13:11:25;32.10;88.80
23385;DHT22;11865;45.394;10.978;2022-07-06T13:13:53;31.90;88.70
23385;DHT22;11865;45.394;10.978;2022-07-06T13:16:20;32.00;90.80
23385;DHT22;11865;45.394;10.978;2022-07-06T13:18:49;32.30;90.00
23385;DHT22;11865;45.394;10.978;2022-07-06T13:21:16;32.40;89.80
23385;DHT22;11865;45.394;10.978;2022-07-06T13:23:44;32.20;88.40
23385;DHT22;11865;45.394;10.978;2022-07-06T13:26:11;32.20;88.30
23385;DHT22;11865;45.394;10.978;2022-07-06T13:28:38;32.30;87.20
23385;DHT22;11865;45.394;10.978;2022-07-06T13:31:05;32.00;90.30
23385;DHT22;11865;45.394;10.978;2022-07-06T13:33:38;32.10;89.70
23385;DHT22;11865;45.394;10.978;2022-07-06T13:36:05;32.20;89.80
23385;DHT22;11865;45.394;10.978;2022-07-06T13:38:33;31.90;84.80
23385;DHT22;11865;45.394;10.978;2022-07-06T13:41:00;31.60;87.20
23385;DHT22;11865;45.394;10.978;2022-07-06T13:43:27;31.80;90.80
23385;DHT22;11865;45.394;10.978;2022-07-06T13:46:03;32.00;89.80
23385;DHT22;11865;45.394;10.978;2022-07-06T13:48:31;31.80;86.70
23385;DHT22;11865;45.394;10.978;2022-07-06T13:50:58;32.00;88.50
23385;DHT22;11865;45.394;10.978;2022-07-06T13:53:26;32.10;88.50
23385;DHT22;11865;45.394;10.978;2022-07-06T13:55:54;31.80;87.80
23385;DHT22;11865;45.394;10.978;2022-07-06T13:58:22;31.60;87.60
23385;DHT22;11865;45.394;10.978;2022-07-06T14:00:49;31.90;86.30
23385;DHT22;11865;45.394;10.978;2022-07-06T14:03:16;31.70;84.80
23385;DHT22;11865;45.394;10.978;2022-07-06T14:05:44;31.80;84.60
23385;DHT22;11865;45.394;10.978;2022-07-06T14:08:11;32.00;85.20
23385;DHT22;11865;45.394;10.978;2022-07-06T14:10:39;32.20;85.70
23385;DHT22;11865;45.394;10.978;2022-07-06T14:13:06;32.30;86.50
23385;DHT22;11865;45.394;10.978;2022-07-06T14:15:34;32.30;84.50
23385;DHT22;11865;45.394;10.978;2022-07-06T14:18:01;32.40;84.60
23385;DHT22;11865;45.394;10.978;2022-07-06T14:20:28;32.60;86.80
23385;DHT22;11865;45.394;10.978;2022-07-06T14:22:56;32.80;86.20
23385;DHT22;11865;45.394;10.978;2022-07-06T14:25:23;32.80;86.30
23385;DHT22;11865;45.394;10.978;2022-07-06T14:27:50;32.80;84.90
23385;DHT22;11865;45.394;10.978;2022-07-06T14:30:18;32.70;84.60
23385;DHT22;11865;45.394;10.978;2022-07-06T14:32:45;32.70;83.70
23385;DHT22;11865;45.394;10.978;2022-07-06T14:35:12;32.60;88.00
23385;DHT22;11865;45.394;10.978;2022-07-06T14:37:40;32.50;90.60
23385;DHT22;11865;45.394;10.978;2022-07-06T14:40:07;32.50;88.60
23385;DHT22;11865;45.394;10.978;2022-07-06T14:42:34;32.30;85.40
23385;DHT22;11865;45.394;10.978;2022-07-06T14:45:02;32.30;84.10
23385;DHT22;11865;45.394;10.978;2022-07-06T14:47:29;32.60;84.20
23385;DHT22;11865;45.394;10.978;2022-07-06T14:49:56;32.70;86.10
23385;DHT22;11865;45.394;10.978;2022-07-06T14:52:24;32.70;83.50
23385;DHT22;11865;45.394;10.978;2022-07-06T14:54:51;32.80;87.20
23385;DHT22;11865;45.394;10.978;2022-07-06T14:57:18;33.00;86.30
23385;DHT22;11865;45.394;10.978;2022-07-06T14:59:45;33.10;84.40
23385;DHT22;11865;45.394;10.978;2022-07-06T15:02:13;33.00;84.30
23385;DHT22;11865;45.394;10.978;2022-07-06T15:04:40;33.10;83.70
23385;DHT22;11865;45.394;10.978;2022-07-06T15:07:08;33.10;84.70
23385;DHT22;11865;45.394;10.978;2022-07-06T15:09:35;33.00;84.60
23385;DHT22;11865;45.394;10.978;2022-07-06T15:12:02;33.00;85.60
23385;DHT22;11865;45.394;10.978;2022-07-06T15:14:30;33.20;87.40
23385;DHT22;11865;45.394;10.978;2022-07-06T15:16:57;32.90;86.40
23385;DHT22;11865;45.394;10.978;2022-07-06T15:19:25;32.60;87.90
23385;DHT22;11865;45.394;10.978;2022-07-06T15:21:54;32.30;90.70
23385;DHT22;11865;45.394;10.978;2022-07-06T15:24:21;32.60;87.50
23385;DHT22;11865;45.394;10.978;2022-07-06T15:26:50;32.90;90.70
23385;DHT22;11865;45.394;10.978;2022-07-06T15:29:17;33.20;89.10
23385;DHT22;11865;45.394;10.978;2022-07-06T15:31:44;32.70;88.50
23385;DHT22;11865;45.394;10.978;2022-07-06T15:34:12;32.60;89.40
23385;DHT22;11865;45.394;10.978;2022-07-06T15:36:39;32.40;90.20